Time;durP1;ratioP1;P1;durP2;ratioP2;P2;SDS_P1;SDS_P2;PMS_P1;PMS_P2;Temp;Humidity;BMP_temperature;BMP_pressure;BME280_temperature;BME280_humidity;BME280_pressure;Samples;Min_cycle;Max_cycle;Signal;HPM_P1;HPM_P2
2023/11/20 00:02:30;;;;;;;53.00;24.80;;;;;;;3.35;100.00;99397.10;674126;1257;22538;-78
2023/11/20 00:18:07;;;;;;;38.80;18.50;;;;;;;3.38;100.00;99402.63;678112;1260;139521;-80
2023/11/20 00:33:44;;;;;;;35.10;16.80;;;;;;;3.43;100.00;99398.63;672995;1260;24276;-79
2023/11/20 00:49:21;;;;;;;53.50;23.50;;;;;;;3.47;100.00;99400.09;675512;1257;138708;-79
2023/11/20 01:05:00;;;;;;;33.50;16.20;;;;;;;3.49;100.00;99396.69;675425;1257;22531;-79
2023/11/20 01:20:37;;;;;;;29.70;12.90;;;;;;;3.50;100.00;99401.23;676686;1260;22395;-79
2023/11/20 01:36:17;;;;;;;29.90;13.00;;;;;;;3.52;100.00;99405.80;675418;1257;139836;-79
2023/11/20 01:51:55;;;;;;;26.50;13.30;;;;;;;3.46;100.00;99405.30;678960;1259;139789;-80
2023/11/20 02:07:33;;;;;;;28.30;13.40;;;;;;;3.47;100.00;99407.67;673040;1259;139175;-81
2023/11/20 02:23:11;;;;;;;27.10;13.90;;;;;;;3.47;100.00;99409.91;675320;1260;140269;-79
2023/11/20 02:38:49;;;;;;;22.60;12.10;;;;;;;3.46;100.00;99404.81;672944;1258;140202;-78
2023/11/20 02:54:29;;;;;;;32.90;16.30;;;;;;;3.53;100.00;99402.92;671336;1257;139519;-78
2023/11/20 03:10:06;;;;;;;24.10;12.90;;;;;;;3.46;100.00;99406.00;671514;1262;139516;-80
2023/11/20 03:25:53;;;;;;;25.00;13.50;;;;;;;3.49;100.00;99406.69;675783;1260;139921;-80
2023/11/20 03:41:31;;;;;;;25.80;12.70;;;;;;;3.45;100.00;99399.50;672623;1257;139801;-79
2023/11/20 03:57:09;;;;;;;32.10;18.10;;;;;;;3.48;100.00;99394.29;672752;1260;139549;-80
2023/11/20 04:12:46;;;;;;;30.40;15.40;;;;;;;3.50;100.00;99387.40;672883;1260;139793;-80
2023/11/20 04:28:23;;;;;;;23.40;13.90;;;;;;;4.14;97.92;99385.26;678242;1260;139692;-79
2023/11/20 04:44:00;;;;;;;20.80;10.60;;;;;;;4.16;97.29;99374.79;679602;1270;139567;-79
2023/11/20 04:59:37;;;;;;;17.40;10.60;;;;;;;4.10;97.20;99373.80;675562;1260;139796;-79
2023/11/20 05:15:17;;;;;;;19.20;10.00;;;;;;;4.12;96.85;99380.09;674032;1260;139024;-80
2023/11/20 05:30:54;;;;;;;355.40;117.20;;;;;;;4.10;96.53;99382.44;673015;1260;139593;-81
2023/11/20 05:46:31;;;;;;;40.20;20.50;;;;;;;4.05;96.84;99387.70;673514;1258;139694;-81
2023/11/20 06:02:08;;;;;;;44.20;21.70;;;;;;;4.07;97.01;99399.71;673409;1262;140218;-79
2023/11/20 06:17:46;;;;;;;28.50;15.50;;;;;;;4.03;96.98;99410.67;675187;1266;140388;-80
2023/11/20 06:33:23;;;;;;;51.10;20.80;;;;;;;3.47;99.76;99420.46;675415;1262;140363;-80
2023/11/20 06:49:01;;;;;;;34.00;12.10;;;;;;;3.52;100.00;99439.98;682951;1261;139903;-80
2023/11/20 07:04:44;;;;;;;142.50;66.00;;;;;;;3.45;100.00;99448.61;682977;1260;140529;-80
2023/11/20 07:20:35;;;;;;;93.40;46.40;;;;;;;3.57;100.00;99463.89;682743;1257;139945;-82
2023/11/20 07:36:12;;;;;;;139.70;54.60;;;;;;;3.62;100.00;99470.42;683127;1262;138699;-81
2023/11/20 07:51:51;;;;;;;55.00;22.30;;;;;;;3.64;100.00;99474.20;683196;1260;23206;-83
2023/11/20 08:07:33;;;;;;;27.80;13.50;;;;;;;3.79;100.00;99475.73;674684;1262;10141177;-82
2023/11/20 08:23:10;;;;;;;29.90;15.40;;;;;;;3.93;100.00;99481.88;682531;1262;139455;-83
2023/11/20 08:38:47;;;;;;;40.20;17.50;;;;;;;3.90;100.00;99494.18;682717;1273;139849;-81
2023/11/20 08:54:24;;;;;;;104.60;46.60;;;;;;;3.92;100.00;99496.80;682941;1262;138853;-81
2023/11/20 09:10:04;;;;;;;124.80;33.90;;;;;;;4.04;100.00;99496.92;682955;1260;140091;-82
2023/11/20 09:25:42;;;;;;;40.40;17.70;;;;;;;4.09;100.00;99503.20;682979;1261;139269;-81
2023/11/20 09:41:18;;;;;;;101.00;34.70;;;;;;;4.04;100.00;99500.41;683090;1262;22147;-82
2023/11/20 09:56:56;;;;;;;79.50;23.10;;;;;;;4.03;100.00;99500.50;683155;1262;139205;-81
2023/11/20 10:12:35;;;;;;;;;;;;;;;3.92;100.00;99487.48;683420;1263;22424;-79
2023/11/20 10:28:18;;;;;;;138.90;36.00;;;;;;;4.14;100.00;99483.58;683062;1262;125052;-79
2023/11/20 10:43:55;;;;;;;67.40;19.80;;;;;;;4.20;100.00;99481.46;682683;1262;140099;-80
2023/11/20 10:59:32;;;;;;;45.60;16.10;;;;;;;3.94;100.00;99482.33;682659;1263;139282;-81
2023/11/20 11:15:15;;;;;;;134.90;47.90;;;;;;;4.04;100.00;99472.21;682081;1262;139554;-81
2023/11/20 11:30:54;;;;;;;31.50;13.20;;;;;;;4.16;100.00;99463.52;682528;1263;139183;-82
2023/11/20 11:46:32;;;;;;;37.90;15.10;;;;;;;3.98;100.00;99467.29;682463;1262;139179;-81
2023/11/20 12:02:09;;;;;;;109.10;36.70;;;;;;;4.02;100.00;99479.30;682805;1263;139372;-83
2023/11/20 12:17:48;;;;;;;66.90;25.90;;;;;;;4.04;100.00;99485.21;682517;1262;139788;-82
2023/11/20 12:33:25;;;;;;;33.20;14.60;;;;;;;3.90;100.00;99482.05;682740;1262;139485;-81
2023/11/20 12:48:55;;;;;;;183.10;74.80;;;;;;;3.92;100.00;99475.03;682663;1262;138790;-83
2023/11/20 13:04:32;;;;;;;106.90;42.60;;;;;;;3.94;100.00;99480.20;682847;1260;139911;-82
2023/11/20 13:20:10;;;;;;;57.90;25.80;;;;;;;3.71;100.00;99483.98;682599;1261;139412;-83
2023/11/20 13:35:47;;;;;;;33.90;14.80;;;;;;;3.48;100.00;99499.89;682873;1271;139619;-82
2023/11/20 13:51:25;;;;;;;22.10;10.40;;;;;;;3.52;100.00;99502.25;682930;1261;139096;-84
2023/11/20 14:07:01;;;;;;;68.30;25.50;;;;;;;3.35;100.00;99513.48;683060;1260;138973;-83
2023/11/20 14:22:41;;;;;;;46.80;16.60;;;;;;;3.46;100.00;99519.09;682842;1260;138762;-84
2023/11/20 14:38:18;;;;;;;43.20;13.50;;;;;;;3.31;100.00;99532.23;682815;1264;141568;-83
2023/11/20 14:53:57;;;;;;;64.00;23.90;;;;;;;3.07;100.00;99542.69;683278;1261;141529;-83
2023/11/20 15:09:33;;;;;;;95.90;38.70;;;;;;;3.03;100.00;99562.48;683013;1260;138697;-82
2023/11/20 15:25:12;;;;;;;99.90;36.70;;;;;;;3.11;100.00;99585.25;682561;1257;138987;-82
2023/11/20 15:40:49;;;;;;;70.50;31.60;;;;;;;2.89;100.00;99580.88;682770;1260;138550;-81
2023/11/20 15:56:27;;;;;;;56.80;24.90;;;;;;;3.01;100.00;99585.80;682878;1260;138998;-81
2023/11/20 16:12:04;;;;;;;76.50;24.70;;;;;;;3.07;99.93;99601.59;683304;1260;139469;-82
2023/11/20 16:27:42;;;;;;;171.00;60.80;;;;;;;3.61;97.51;99618.48;682759;1260;138443;-82
2023/11/20 16:43:22;;;;;;;78.80;36.20;;;;;;;3.09;99.15;99634.27;682988;1257;139574;-81
2023/11/20 16:58:59;;;;;;;48.70;25.30;;;;;;;2.87;100.00;99635.27;683395;1272;139593;-81
2023/11/20 17:14:36;;;;;;;25.20;14.80;;;;;;;2.77;100.00;99637.29;683198;1256;140026;-81
2023/11/20 17:30:14;;;;;;;42.00;23.30;;;;;;;2.73;99.81;99640.84;683167;1257;139546;-79
2023/11/20 17:45:51;;;;;;;162.30;58.30;;;;;;;2.85;98.68;99651.79;683032;1257;138669;-81
2023/11/20 18:01:28;;;;;;;37.10;15.70;;;;;;;2.92;97.68;99657.34;683282;1257;138863;-80
2023/11/20 18:17:09;;;;;;;92.40;32.90;;;;;;;2.68;97.11;99665.47;683299;1260;140474;-82
2023/11/20 18:32:46;;;;;;;45.60;21.40;;;;;;;2.88;95.38;99667.98;683786;1257;139096;-82
2023/11/20 18:48:23;;;;;;;134.70;45.80;;;;;;;2.25;98.13;99673.20;683266;1259;138313;-80
2023/11/20 19:04:02;;;;;;;191.40;57.40;;;;;;;2.23;99.15;99687.52;683279;1259;138784;-81
2023/11/20 19:19:38;;;;;;;86.80;34.20;;;;;;;2.09;99.46;99696.81;683543;1262;138880;-80
2023/11/20 19:35:16;;;;;;;52.30;23.20;;;;;;;1.99;98.75;99706.09;683363;1257;139196;-81
2023/11/20 19:50:52;;;;;;;60.20;27.80;;;;;;;1.97;98.39;99711.39;683376;1257;138804;-80
2023/11/20 20:06:29;;;;;;;62.10;26.50;;;;;;;1.83;98.47;99733.25;675958;1259;10137796;-80
2023/11/20 20:22:13;;;;;;;38.60;18.60;;;;;;;1.86;98.24;99749.29;684113;1259;139009;-79
2023/11/20 20:37:50;;;;;;;153.70;46.60;;;;;;;1.95;97.23;99757.03;684331;1260;138757;-80
2023/11/20 20:53:27;;;;;;;54.50;22.50;;;;;;;1.92;96.83;99768.10;684109;1255;139165;-79
2023/11/20 21:09:06;;;;;;;39.90;19.20;;;;;;;1.97;96.42;99772.23;683938;1257;138443;-79
2023/11/20 21:24:43;;;;;;;43.00;17.10;;;;;;;1.81;96.43;99778.70;684125;1260;139634;-80
2023/11/20 21:40:19;;;;;;;;;;;;;;;1.71;95.85;99788.23;684341;1260;138579;-80
2023/11/20 21:55:59;;;;;;;86.00;28.30;;;;;;;1.74;95.37;99799.16;683997;1260;125118;-80
2023/11/20 22:11:38;;;;;;;72.90;26.80;;;;;;;1.82;95.08;99804.03;683670;1273;139171;-80
2023/11/20 22:27:15;;;;;;;46.60;20.40;;;;;;;1.83;94.57;99806.54;684084;1259;139374;-80
2023/11/20 22:42:52;;;;;;;40.30;18.30;;;;;;;1.88;94.73;99812.29;684457;1260;22176;-80
2023/11/20 22:58:30;;;;;;;84.50;42.40;;;;;;;1.86;94.93;99812.89;684036;1260;138682;-80
2023/11/20 23:14:07;;;;;;;29.80;15.20;;;;;;;1.88;94.16;99803.17;683259;1261;139634;-80
2023/11/20 23:29:44;;;;;;;27.70;12.20;;;;;;;1.87;93.57;99806.67;683051;1261;139656;-80
2023/11/20 23:45:21;;;;;;;;;;;;;;;1.87;93.64;99822.89;683368;1259;139405;-80
